NAABOL | IFIS

recepcionado mensaje
2024-04-24 08:58:23 SABO SLLP 240900
-METAR SLLP 240900Z VRB02KT 9999 FEW005 SCT070 06/05 Q1040 A3072 629.5 HR91 NOSIG=
-METAR SLVR 240900Z 35005KT 9999 FEW015 FEW030CB SCT200 24/24 Q1012 A2989 HR97 CB/LT W NOSIG=
-METAR SLCB 240900Z 19003KT 9999 FEW030 BKN200 14/08 Q1025 A3029 751.9 HR64 AC FU NOSIG=
2024-04-24 07:56:58 SABO SLLP 240800
-METAR SLLP 240800Z 04004KT 9999 4000E VCFG FEW002 SCT070 06/06 Q1040 A3072 629.6 HR100 VCFG NE/E/SE NOSIG=
-METAR SLVR 240800Z 32005KT 9999 FEW015 FEW030CB 24/24 Q1012 A2990 HR97 CB/LT W CI NOSIG=
-METAR SLCB 240800Z 07003KT 9999 FEW030 FEW033CB SCT080 BKN200 15/08 Q1025 A3029 751.9 HR64 CB/LT DIST E/SE FU NOSIG=
2024-04-24 06:57:22 SABO SLLP 240700
-METAR SLLP 240700Z VRB02KT 9999 4000E VCFG FEW002 SCT010 04/04 Q1040 A3071 629.3 HR100 VCFG NE/E/SE AC NOSIG=
-METAR SLVR 240700Z 33003KT 9999 FEW030CB 24/24 Q1011 A2988 HR97 CB/LT DIST/W CI NOSIG=
-METAR SLCB 240700Z 26003KT 9999 FEW030 FEW033CB BKN080 15/10 Q1025 A3029 752.0 HR69 CB/LT E/SE FU CI NOSIG=
2024-04-24 05:57:54 SABO SLLP 240600
-METAR SLLP 240600Z VRB02KT 9999 4000E VCFG FEW002 SCT010 06/06 Q1040 A3072 629.4 HR100 VCFG N/NE/E/SE AC NOSIG=
-METAR SLVR 240600Z VRB02KT 9999 NSC 24/24 Q1011 A2987 HR96 NOSIG=
-METAR SLCB 240600Z 24003KT 9999 FEW030 FEW033CB SCT080 15/09 Q1025 A3029 752.0 HR67 CB/LT NE/E FU CI NOSIG= 
2024-04-24 05:01:00 SABO SLLP 240500
-METAR SLLP 240500Z 09005KT 9999 3000E VCFG FEW002 07/07 Q1041 A3074 630.0 HR98 VCFG NE/E/SE AC NOSIG=
-METAR SLVR 240500Z 33003KT 9999 NSC 25/24 Q1012 A2989 HR96 FU NOSIG=
-METAR SLCB 240500Z 26003KT 9999 FEW030 FEW033CB SCT080 15/08 Q1025 A3027 751.5 HR63 CB/LT NE FU CI NOSIG= 
2024-04-24 03:55:41 SABO SLLP 240400
-METAR SLLP 240400Z 09005KT 9999 FEW010 06/06 Q1041 A3075 630.2 HR97 NOSIG=
-METAR SLVR 240400Z 35003KT 9999 FEW023 25/25 Q1012 A2991 HR95 FU NOSIG=
-METAR SLCB 240400Z 15003KT 9999 FEW030 FEW033CB SCT200 16/08 Q1026 A3030 752.2 HR57 CB/LT NE AC FU NOSIG= 
2024-04-24 02:57:47 SABO SLLP 240300
-METAR SLLP 240300Z 07005KT 9999 NSC 05/05 Q1041 A3075 630.1 HR98 NOSIG=
-METAR SLVR 240300Z 34003KT 9999 FEW023 25/25 Q1012 A2990 HR95 FU NOSIG=
-METAR SLCB 240300Z 12006KT 070V170 9999 FEW030 SCT200 18/07 Q1025 A3029 751.9 HR51 FU NOSIG=
2024-04-24 01:56:45 SABO SLLP 240200
-METAR SLLP 240200Z 08004KT 9999 NSC 05/03 Q1040 A3074 629.9 HR91 NOSIG=
-METAR SLVR 240200Z VRB02KT 9999 NSC 26/25 Q1011 A2988 HR94 NOSIG=
-METAR SLCB 240200Z 08003KT 9999 FEW030 SCT200 18/07 Q1025 A3027 751.4 HR49 FU NOSIG=
-METAR SLTJ 240200Z 14004KT 9999 SCT025 BKN070 21/18 Q1021 A3015 815.8 HR80=
2024-04-24 00:57:33 SABO SLLP 240100
-METAR SLLP 240100Z 05003KT 9999 NSC 07/04 Q1040 A3072 629.5 HR84 NOSIG=
-METAR SLVR 240100Z 35004KT 9999 NSC 26/25 Q1011 A2985 HR93 NOSIG=
-METAR SLCB 240100Z 12004KT 070V170 9999 FEW030 SCT200 20/06 Q1024 A3025 750.9 HR40 AC FU NOSIG=
-METAR SLTJ 240100Z 14006KT 9999 SCT025 BKN070 22/17 Q1020 A3014 815.5 HR71=
2024-04-23 23:58:37 SABO SLLP 240000
-METAR SLLP 240000Z 08004KT 9999 FEW013 08/04 Q1039 A3070 629.0 HR73 NOSIG= 
2024-04-23 23:57:50 SABO SLVR 240000
-METAR SLVR 240000Z 35003KT 9999 NSC 27/25 Q1010 A2983 HR92 NOSIG=
2024-04-23 23:57:45 SABO SLCB 240000
-METAR SLCB 240000Z 29003KT 9999 FEW030 SCT200 21/04 Q1023 A3022 750.1 HR32 AC FU NOSIG=
-METAR SLAL 240000Z 05007KT 9999 FEW017 SCT200 16/10 Q1030 A3042 704.4 HR66=
-METAR SLTJ 240000Z 14010KT 9999 SCT025 BKN070 23/17 Q1019 A3011 814.7 HR69= 
2024-04-23 22:57:57 SABO SLCB 232300
-METAR SLCB 232300Z 06004KT 9999 FEW030 SCT200 23/04 Q1022 A3018 749.1 HR29 AC FU NOSIG=
-METAR SLAL 232300Z 36009KT 9999 FEW020 18/07 Q1029 A3039 703.6 HR47 CI=
-METAR SLTJ 232300Z 13006KT 9999 SCT025 BKN070 24/17 Q1018 A3008 813.9 HR66= 
2024-04-23 22:57:51 SABO SLLP 232300
-METAR SLLP 232300Z 13008KT 9999 FEW015 13/00 Q1038 A3067 628.4 HR39 NOSIG=
-METAR SLCO 232300Z 35005KT 9999 SCT017 FEW025CB SCT080 BKN200 28/26 Q1009 A2982 982.3 HR89 CB/N/NE/NW RETS=
-METAR SLOR 232300Z 18006KT 9999 FEW015 14/05 Q1034 A3055 655.6 HR53 AC= 
2024-04-23 21:58:55 SABO SLTR 232200
-METAR SLTR 232200Z 35003KT 9999 FEW020 BKN200 32/25 Q1007 A2975 988.9 HR67=
-METAR SLGM 232200Z 22006KT 9999 FEW023 FEW025CB BKN200 31/26 Q1007 A2975 HR75 CB/SH SE/W/NW=
-METAR SLRI 232200Z 00000KT 9999 FEW020 FEW023CB SCT200 32/25 Q1008 A2978 HR68 CB NE/E=
-METAR SLJO 232200Z 00000KT 9999 FEW017 31/25 Q1007 A2976 HR72 RWY NML=
-METAR SLRA 232200Z 00000KT 9999 FEW017 32/26 Q1008 A2978 HR70 RWY NML=
-METAR SLMG 232200Z 00000KT 9999 NSC 32/26 Q1008 A2979 HR69 CI RWY NML=
-METAR SLSA 232200Z 36003KT 9999 FEW020 SCT200 32/26 Q1008 A2979 HR68=
-METAR SLSR 232200Z 35003KT 9999 FEW017 32/25 Q1009 A2980 HR67 RWY NML=
-METAR SLRY 232200Z 00000KT 9999 FEW015 31/27 Q1008 A2978 HR80 CI RWY NML=
-METAR SLSB 232200Z 00000KT 9999 FEW017 32/26 Q1010 A2982 HR67 RWY NML
-METAR SLSM 232200Z 00000KT 9999 FEW015 32/27 Q1006 A2971 HR74 CI RWY NML=

Theme Customizer

Theme Styles



Header Colors


Sidebar Colors